sensor_id;sensor_type;location;lat;lon;timestamp;temperature;humidity
12889;DHT22;56848;49.896;11.424;2023-03-12T05:02:31;-3.20;99.90
12889;DHT22;56848;49.896;11.424;2023-03-12T05:04:57;-3.20;99.90
12889;DHT22;56848;49.896;11.424;2023-03-12T05:07:23;-3.10;99.90
12889;DHT22;56848;49.896;11.424;2023-03-12T05:09:48;-3.20;99.90
12889;DHT22;56848;49.896;11.424;2023-03-12T05:12:14;-3.30;99.90
12889;DHT22;56848;49.896;11.424;2023-03-12T05:14:39;-3.30;99.90
12889;DHT22;56848;49.896;11.424;2023-03-12T05:17:05;-3.40;99.90
12889;DHT22;56848;49.896;11.424;2023-03-12T05:19:31;-3.40;99.90
12889;DHT22;56848;49.896;11.424;2023-03-12T05:21:56;-3.40;99.90
12889;DHT22;56848;49.896;11.424;2023-03-12T05:24:22;-3.50;99.90
12889;DHT22;56848;49.896;11.424;2023-03-12T05:26:48;-3.50;99.90
12889;DHT22;56848;49.896;11.424;2023-03-12T05:29:13;-3.40;99.90
12889;DHT22;56848;49.896;11.424;2023-03-12T05:31:39;-3.30;99.90
12889;DHT22;56848;49.896;11.424;2023-03-12T05:34:04;-3.30;99.90
12889;DHT22;56848;49.896;11.424;2023-03-12T05:36:30;-3.30;99.90
12889;DHT22;56848;49.896;11.424;2023-03-12T05:38:55;-3.20;99.90
12889;DHT22;56848;49.896;11.424;2023-03-12T05:41:26;-3.20;99.90
12889;DHT22;56848;49.896;11.424;2023-03-12T05:43:53;-3.20;99.90
12889;DHT22;56848;49.896;11.424;2023-03-12T05:46:20;-3.20;99.90
12889;DHT22;56848;49.896;11.424;2023-03-12T05:48:46;-3.20;99.90
12889;DHT22;56848;49.896;11.424;2023-03-12T05:51:12;-3.10;99.90
12889;DHT22;56848;49.896;11.424;2023-03-12T05:53:37;-3.10;99.90
12889;DHT22;56848;49.896;11.424;2023-03-12T05:56:04;-3.10;99.90
12889;DHT22;56848;49.896;11.424;2023-03-12T05:58:31;-3.10;99.90
12889;DHT22;56848;49.896;11.424;2023-03-12T06:00:56;-3.20;99.90
12889;DHT22;56848;49.896;11.424;2023-03-12T06:03:22;-3.00;99.90
12889;DHT22;56848;49.896;11.424;2023-03-12T06:05:48;-3.00;99.90
12889;DHT22;56848;49.896;11.424;2023-03-12T06:08:13;-2.90;99.90
12889;DHT22;56848;49.896;11.424;2023-03-12T06:10:39;-2.90;99.90
12889;DHT22;56848;49.896;11.424;2023-03-12T06:13:05;-2.80;99.90
12889;DHT22;56848;49.896;11.424;2023-03-12T06:15:31;-2.80;99.90
12889;DHT22;56848;49.896;11.424;2023-03-12T06:17:57;-2.80;99.90
12889;DHT22;56848;49.896;11.424;2023-03-12T06:20:22;-2.70;99.90
12889;DHT22;56848;49.896;11.424;2023-03-12T06:22:48;-2.70;99.90
12889;DHT22;56848;49.896;11.424;2023-03-12T06:25:14;-2.70;99.90
12889;DHT22;56848;49.896;11.424;2023-03-12T06:27:39;-2.70;99.90
12889;DHT22;56848;49.896;11.424;2023-03-12T06:30:06;-2.60;99.90
12889;DHT22;56848;49.896;11.424;2023-03-12T06:32:32;-2.50;99.90
12889;DHT22;56848;49.896;11.424;2023-03-12T06:34:58;-2.40;99.90
12889;DHT22;56848;49.896;11.424;2023-03-12T06:37:25;-2.30;99.90
12889;DHT22;56848;49.896;11.424;2023-03-12T06:39:51;-2.10;99.90
12889;DHT22;56848;49.896;11.424;2023-03-12T06:42:16;-2.00;99.90
12889;DHT22;56848;49.896;11.424;2023-03-12T06:44:44;-1.80;99.90
12889;DHT22;56848;49.896;11.424;2023-03-12T06:47:09;-1.70;99.90
12889;DHT22;56848;49.896;11.424;2023-03-12T06:49:35;-1.60;99.90
12889;DHT22;56848;49.896;11.424;2023-03-12T06:52:02;-1.40;99.90
12889;DHT22;56848;49.896;11.424;2023-03-12T06:54:28;-1.20;99.90
12889;DHT22;56848;49.896;11.424;2023-03-12T06:56:53;-1.10;99.90
12889;DHT22;56848;49.896;11.424;2023-03-12T06:59:19;-1.00;99.90
12889;DHT22;56848;49.896;11.424;2023-03-12T07:01:46;-1.00;99.90
12889;DHT22;56848;49.896;11.424;2023-03-12T07:04:12;-1.00;99.90
12889;DHT22;56848;49.896;11.424;2023-03-12T07:06:38;-0.90;99.90
12889;DHT22;56848;49.896;11.424;2023-03-12T07:09:04;-0.90;99.90
12889;DHT22;56848;49.896;11.424;2023-03-12T07:11:29;-0.90;99.90
12889;DHT22;56848;49.896;11.424;2023-03-12T07:13:55;-0.90;99.90
12889;DHT22;56848;49.896;11.424;2023-03-12T07:16:21;-0.80;99.90
12889;DHT22;56848;49.896;11.424;2023-03-12T07:18:47;-0.60;99.90
12889;DHT22;56848;49.896;11.424;2023-03-12T07:21:13;-0.40;99.90
12889;DHT22;56848;49.896;11.424;2023-03-12T07:23:50;-0.30;99.90
12889;DHT22;56848;49.896;11.424;2023-03-12T07:26:16;-0.30;99.90
12889;DHT22;56848;49.896;11.424;2023-03-12T07:28:41;-0.40;99.90
12889;DHT22;56848;49.896;11.424;2023-03-12T07:31:07;-0.50;99.90
12889;DHT22;56848;49.896;11.424;2023-03-12T07:33:33;-0.40;99.90
12889;DHT22;56848;49.896;11.424;2023-03-12T07:35:58;-0.40;99.90
12889;DHT22;56848;49.896;11.424;2023-03-12T07:38:24;-0.40;99.90
12889;DHT22;56848;49.896;11.424;2023-03-12T07:40:54;-0.40;99.90
12889;DHT22;56848;49.896;11.424;2023-03-12T07:43:22;-0.40;99.90
12889;DHT22;56848;49.896;11.424;2023-03-12T07:45:49;-0.40;99.90
12889;DHT22;56848;49.896;11.424;2023-03-12T07:48:15;-0.40;99.90
12889;DHT22;56848;49.896;11.424;2023-03-12T07:50:41;-0.20;99.90
12889;DHT22;56848;49.896;11.424;2023-03-12T07:53:07;-0.10;99.90
12889;DHT22;56848;49.896;11.424;2023-03-12T07:55:33;0.00;99.90
12889;DHT22;56848;49.896;11.424;2023-03-12T07:57:59;0.10;99.90
12889;DHT22;56848;49.896;11.424;2023-03-12T08:00:26;0.20;99.90
12889;DHT22;56848;49.896;11.424;2023-03-12T08:02:52;0.30;99.90
12889;DHT22;56848;49.896;11.424;2023-03-12T08:05:18;0.40;99.90
12889;DHT22;56848;49.896;11.424;2023-03-12T08:07:43;0.60;99.90
12889;DHT22;56848;49.896;11.424;2023-03-12T08:10:10;0.60;99.90
12889;DHT22;56848;49.896;11.424;2023-03-12T08:12:36;0.80;99.90
12889;DHT22;56848;49.896;11.424;2023-03-12T08:15:06;0.90;99.90
12889;DHT22;56848;49.896;11.424;2023-03-12T08:17:33;0.90;99.90
12889;DHT22;56848;49.896;11.424;2023-03-12T08:19:58;0.90;99.90
12889;DHT22;56848;49.896;11.424;2023-03-12T08:22:24;0.90;99.90
12889;DHT22;56848;49.896;11.424;2023-03-12T08:24:50;1.10;99.90
12889;DHT22;56848;49.896;11.424;2023-03-12T08:27:15;1.20;99.90
12889;DHT22;56848;49.896;11.424;2023-03-12T08:29:41;1.20;99.90
12889;DHT22;56848;49.896;11.424;2023-03-12T08:32:08;1.40;99.90
12889;DHT22;56848;49.896;11.424;2023-03-12T08:34:35;1.40;99.90
12889;DHT22;56848;49.896;11.424;2023-03-12T08:37:01;1.50;99.90
12889;DHT22;56848;49.896;11.424;2023-03-12T08:39:27;1.50;99.90
12889;DHT22;56848;49.896;11.424;2023-03-12T08:41:53;1.50;99.90
12889;DHT22;56848;49.896;11.424;2023-03-12T08:44:20;1.60;99.90
12889;DHT22;56848;49.896;11.424;2023-03-12T08:46:46;1.70;99.90
12889;DHT22;56848;49.896;11.424;2023-03-12T08:49:12;1.80;99.90
12889;DHT22;56848;49.896;11.424;2023-03-12T08:51:38;2.00;99.90
12889;DHT22;56848;49.896;11.424;2023-03-12T08:54:04;2.20;99.90
12889;DHT22;56848;49.896;11.424;2023-03-12T08:56:30;2.20;99.90
12889;DHT22;56848;49.896;11.424;2023-03-12T08:58:57;2.40;99.90
12889;DHT22;56848;49.896;11.424;2023-03-12T09:01:23;2.50;99.90
12889;DHT22;56848;49.896;11.424;2023-03-12T09:03:48;2.60;99.90
12889;DHT22;56848;49.896;11.424;2023-03-12T09:06:16;2.90;99.90
12889;DHT22;56848;49.896;11.424;2023-03-12T09:08:44;3.00;99.90
12889;DHT22;56848;49.896;11.424;2023-03-12T09:11:11;2.80;99.90
12889;DHT22;56848;49.896;11.424;2023-03-12T09:13:37;2.70;99.90
12889;DHT22;56848;49.896;11.424;2023-03-12T09:16:03;2.70;99.90
12889;DHT22;56848;49.896;11.424;2023-03-12T09:18:31;2.50;99.90
12889;DHT22;56848;49.896;11.424;2023-03-12T09:20:57;2.50;99.90
12889;DHT22;56848;49.896;11.424;2023-03-12T09:23:24;2.60;99.90
12889;DHT22;56848;49.896;11.424;2023-03-12T09:25:50;2.80;99.90
12889;DHT22;56848;49.896;11.424;2023-03-12T09:28:16;3.10;99.90
12889;DHT22;56848;49.896;11.424;2023-03-12T09:30:42;3.20;99.90
12889;DHT22;56848;49.896;11.424;2023-03-12T09:33:07;3.40;99.90
12889;DHT22;56848;49.896;11.424;2023-03-12T09:35:33;3.30;99.90
12889;DHT22;56848;49.896;11.424;2023-03-12T09:37:59;3.20;99.90
12889;DHT22;56848;49.896;11.424;2023-03-12T09:40:28;3.10;99.90
12889;DHT22;56848;49.896;11.424;2023-03-12T09:45:24;3.50;99.90
12889;DHT22;56848;49.896;11.424;2023-03-12T09:48:00;3.50;99.90
12889;DHT22;56848;49.896;11.424;2023-03-12T09:50:37;3.50;99.90
12889;DHT22;56848;49.896;11.424;2023-03-12T09:55:44;3.80;99.90
12889;DHT22;56848;49.896;11.424;2023-03-12T09:58:16;3.80;99.90
12889;DHT22;56848;49.896;11.424;2023-03-12T10:00:43;3.70;99.90
12889;DHT22;56848;49.896;11.424;2023-03-12T10:03:46;3.70;99.90
12889;DHT22;56848;49.896;11.424;2023-03-12T10:06:19;3.60;99.90
12889;DHT22;56848;49.896;11.424;2023-03-12T10:12:08;3.90;99.90
12889;DHT22;56848;49.896;11.424;2023-03-12T10:14:55;4.20;99.90
12889;DHT22;56848;49.896;11.424;2023-03-12T10:17:46;4.50;99.90
12889;DHT22;56848;49.896;11.424;2023-03-12T10:20:49;4.90;99.90
12889;DHT22;56848;49.896;11.424;2023-03-12T10:23:30;4.90;99.90
12889;DHT22;56848;49.896;11.424;2023-03-12T10:28:36;4.50;99.90
12889;DHT22;56848;49.896;11.424;2023-03-12T10:31:17;4.40;99.90
12889;DHT22;56848;49.896;11.424;2023-03-12T10:33:48;4.60;99.90
12889;DHT22;56848;49.896;11.424;2023-03-12T10:36:39;4.60;99.90
12889;DHT22;56848;49.896;11.424;2023-03-12T10:39:13;4.50;99.90
12889;DHT22;56848;49.896;11.424;2023-03-12T10:41:41;4.50;99.90
12889;DHT22;56848;49.896;11.424;2023-03-12T10:44:08;4.60;99.90
12889;DHT22;56848;49.896;11.424;2023-03-12T10:47:04;4.80;99.90
12889;DHT22;56848;49.896;11.424;2023-03-12T10:49:35;4.60;99.90
12889;DHT22;56848;49.896;11.424;2023-03-12T10:52:06;4.90;99.90
12889;DHT22;56848;49.896;11.424;2023-03-12T10:54:38;4.80;99.90
12889;DHT22;56848;49.896;11.424;2023-03-12T10:57:06;4.60;99.90
12889;DHT22;56848;49.896;11.424;2023-03-12T10:59:35;4.50;99.90
12889;DHT22;56848;49.896;11.424;2023-03-12T11:02:01;4.40;99.90
12889;DHT22;56848;49.896;11.424;2023-03-12T11:04:31;4.50;99.90
12889;DHT22;56848;49.896;11.424;2023-03-12T11:07:17;4.20;99.90
12889;DHT22;56848;49.896;11.424;2023-03-12T11:09:44;4.20;99.90
12889;DHT22;56848;49.896;11.424;2023-03-12T11:12:27;4.30;99.90
12889;DHT22;56848;49.896;11.424;2023-03-12T11:14:53;4.20;99.90
12889;DHT22;56848;49.896;11.424;2023-03-12T11:17:24;4.30;99.90
12889;DHT22;56848;49.896;11.424;2023-03-12T11:19:51;4.30;99.90
12889;DHT22;56848;49.896;11.424;2023-03-12T11:22:32;4.40;99.90
12889;DHT22;56848;49.896;11.424;2023-03-12T11:25:01;4.50;99.90
12889;DHT22;56848;49.896;11.424;2023-03-12T11:27:40;4.60;99.90
12889;DHT22;56848;49.896;11.424;2023-03-12T11:30:13;4.60;99.90
12889;DHT22;56848;49.896;11.424;2023-03-12T11:32:45;4.40;99.90
12889;DHT22;56848;49.896;11.424;2023-03-12T11:35:13;4.20;99.90
12889;DHT22;56848;49.896;11.424;2023-03-12T11:48:42;4.50;99.90
12889;DHT22;56848;49.896;11.424;2023-03-12T11:55:17;4.90;99.90
12889;DHT22;56848;49.896;11.424;2023-03-12T12:00:10;4.60;99.90
12889;DHT22;56848;49.896;11.424;2023-03-12T12:07:50;4.50;99.90
12889;DHT22;56848;49.896;11.424;2023-03-12T12:12:58;4.50;99.90
12889;DHT22;56848;49.896;11.424;2023-03-12T12:18:55;4.40;99.90
12889;DHT22;56848;49.896;11.424;2023-03-12T12:24:01;4.00;99.90
12889;DHT22;56848;49.896;11.424;2023-03-12T12:32:03;3.80;99.90
12889;DHT22;56848;49.896;11.424;2023-03-12T12:37:22;3.60;99.90
12889;DHT22;56848;49.896;11.424;2023-03-12T12:42:35;3.60;99.90
12889;DHT22;56848;49.896;11.424;2023-03-12T12:45:09;3.60;99.90
12889;DHT22;56848;49.896;11.424;2023-03-12T12:47:48;3.50;99.90
12889;DHT22;56848;49.896;11.424;2023-03-12T12:50:21;3.50;99.90
12889;DHT22;56848;49.896;11.424;2023-03-12T12:52:54;3.50;99.90
12889;DHT22;56848;49.896;11.424;2023-03-12T12:55:32;3.60;99.90
12889;DHT22;56848;49.896;11.424;2023-03-12T12:58:04;3.60;99.90
12889;DHT22;56848;49.896;11.424;2023-03-12T13:00:53;3.80;99.90
12889;DHT22;56848;49.896;11.424;2023-03-12T13:03:21;3.80;99.90
12889;DHT22;56848;49.896;11.424;2023-03-12T13:13:43;3.40;99.90
12889;DHT22;56848;49.896;11.424;2023-03-12T13:19:04;3.20;99.90
12889;DHT22;56848;49.896;11.424;2023-03-12T13:22:16;3.30;99.90
12889;DHT22;56848;49.896;11.424;2023-03-12T13:25:09;3.20;99.90
12889;DHT22;56848;49.896;11.424;2023-03-12T13:27:39;3.30;99.90
12889;DHT22;56848;49.896;11.424;2023-03-12T13:45:33;3.50;99.90
12889;DHT22;56848;49.896;11.424;2023-03-12T13:48:04;3.60;99.90
12889;DHT22;56848;49.896;11.424;2023-03-12T13:50:31;3.40;99.90
12889;DHT22;56848;49.896;11.424;2023-03-12T13:53:03;3.60;99.90
12889;DHT22;56848;49.896;11.424;2023-03-12T13:55:33;3.60;99.90
12889;DHT22;56848;49.896;11.424;2023-03-12T13:58:13;3.60;99.90
12889;DHT22;56848;49.896;11.424;2023-03-12T14:00:53;3.40;99.90
12889;DHT22;56848;49.896;11.424;2023-03-12T14:03:32;3.50;99.90
12889;DHT22;56848;49.896;11.424;2023-03-12T14:06:12;3.50;99.90
12889;DHT22;56848;49.896;11.424;2023-03-12T14:08:46;3.50;99.90
12889;DHT22;56848;49.896;11.424;2023-03-12T14:16:51;3.40;99.90
12889;DHT22;56848;49.896;11.424;2023-03-12T14:19:25;3.50;99.90
12889;DHT22;56848;49.896;11.424;2023-03-12T14:21:52;3.50;99.90
12889;DHT22;56848;49.896;11.424;2023-03-12T14:24:28;3.50;99.90
12889;DHT22;56848;49.896;11.424;2023-03-12T14:26:57;3.50;99.90
12889;DHT22;56848;49.896;11.424;2023-03-12T14:29:40;3.60;99.90
12889;DHT22;56848;49.896;11.424;2023-03-12T14:32:14;3.60;99.90
12889;DHT22;56848;49.896;11.424;2023-03-12T14:34:44;3.70;99.90
12889;DHT22;56848;49.896;11.424;2023-03-12T14:37:23;3.70;99.90
12889;DHT22;56848;49.896;11.424;2023-03-12T14:40:00;3.70;99.90
12889;DHT22;56848;49.896;11.424;2023-03-12T14:42:34;3.70;99.90
12889;DHT22;56848;49.896;11.424;2023-03-12T14:45:15;3.70;99.90
12889;DHT22;56848;49.896;11.424;2023-03-12T14:47:46;3.70;99.90
12889;DHT22;56848;49.896;11.424;2023-03-12T14:50:21;3.70;99.90
12889;DHT22;56848;49.896;11.424;2023-03-12T14:52:46;3.80;99.90
12889;DHT22;56848;49.896;11.424;2023-03-12T14:55:19;3.80;99.90
12889;DHT22;56848;49.896;11.424;2023-03-12T14:57:47;3.80;99.90
12889;DHT22;56848;49.896;11.424;2023-03-12T15:00:22;3.90;99.90
12889;DHT22;56848;49.896;11.424;2023-03-12T15:02:50;3.90;99.90
12889;DHT22;56848;49.896;11.424;2023-03-12T15:05:18;3.90;99.90
12889;DHT22;56848;49.896;11.424;2023-03-12T15:07:45;3.90;99.90
12889;DHT22;56848;49.896;11.424;2023-03-12T15:10:25;3.90;99.90
12889;DHT22;56848;49.896;11.424;2023-03-12T15:12:54;3.90;99.90
12889;DHT22;56848;49.896;11.424;2023-03-12T15:15:40;4.00;99.90
12889;DHT22;56848;49.896;11.424;2023-03-12T15:18:10;4.00;99.90
12889;DHT22;56848;49.896;11.424;2023-03-12T15:20:37;4.00;99.90
12889;DHT22;56848;49.896;11.424;2023-03-12T15:23:05;4.00;99.90
12889;DHT22;56848;49.896;11.424;2023-03-12T15:25:32;4.00;99.90
12889;DHT22;56848;49.896;11.424;2023-03-12T15:28:03;4.10;99.90
12889;DHT22;56848;49.896;11.424;2023-03-12T15:30:29;4.10;99.90
12889;DHT22;56848;49.896;11.424;2023-03-12T15:38:30;4.20;99.90
12889;DHT22;56848;49.896;11.424;2023-03-12T15:41:07;4.20;99.90
12889;DHT22;56848;49.896;11.424;2023-03-12T15:43:33;4.20;99.90
12889;DHT22;56848;49.896;11.424;2023-03-12T15:46:03;4.20;99.90
12889;DHT22;56848;49.896;11.424;2023-03-12T15:48:33;4.30;99.90
12889;DHT22;56848;49.896;11.424;2023-03-12T15:51:00;4.30;99.90
12889;DHT22;56848;49.896;11.424;2023-03-12T15:53:28;4.30;99.90
12889;DHT22;56848;49.896;11.424;2023-03-12T15:56:17;4.30;99.90
12889;DHT22;56848;49.896;11.424;2023-03-12T15:58:45;4.30;99.90
12889;DHT22;56848;49.896;11.424;2023-03-12T16:01:17;4.30;99.90
12889;DHT22;56848;49.896;11.424;2023-03-12T16:03:45;4.40;99.90
12889;DHT22;56848;49.896;11.424;2023-03-12T16:06:16;4.40;99.90
12889;DHT22;56848;49.896;11.424;2023-03-12T16:09:01;4.40;99.90
12889;DHT22;56848;49.896;11.424;2023-03-12T16:11:32;4.50;99.90
12889;DHT22;56848;49.896;11.424;2023-03-12T16:16:46;4.50;99.90
12889;DHT22;56848;49.896;11.424;2023-03-12T16:19:13;4.50;99.90
12889;DHT22;56848;49.896;11.424;2023-03-12T16:21:39;4.60;99.90
12889;DHT22;56848;49.896;11.424;2023-03-12T16:24:05;4.60;99.90
12889;DHT22;56848;49.896;11.424;2023-03-12T16:26:33;4.60;99.90
12889;DHT22;56848;49.896;11.424;2023-03-12T16:28:59;4.70;99.90
12889;DHT22;56848;49.896;11.424;2023-03-12T16:31:25;4.70;99.90
12889;DHT22;56848;49.896;11.424;2023-03-12T16:33:50;4.70;99.90
12889;DHT22;56848;49.896;11.424;2023-03-12T16:36:17;4.70;99.90
12889;DHT22;56848;49.896;11.424;2023-03-12T16:38:44;4.80;99.90
12889;DHT22;56848;49.896;11.424;2023-03-12T16:41:13;4.80;99.90
12889;DHT22;56848;49.896;11.424;2023-03-12T16:43:41;4.80;99.90
12889;DHT22;56848;49.896;11.424;2023-03-12T16:46:13;4.90;99.90
12889;DHT22;56848;49.896;11.424;2023-03-12T16:48:39;4.90;99.90
12889;DHT22;56848;49.896;11.424;2023-03-12T16:51:12;4.90;99.90
12889;DHT22;56848;49.896;11.424;2023-03-12T16:53:38;4.90;99.90
12889;DHT22;56848;49.896;11.424;2023-03-12T16:56:03;5.00;99.90
12889;DHT22;56848;49.896;11.424;2023-03-12T16:58:30;5.00;99.90
12889;DHT22;56848;49.896;11.424;2023-03-12T17:00:56;5.00;99.90
12889;DHT22;56848;49.896;11.424;2023-03-12T17:05:50;5.00;99.90
12889;DHT22;56848;49.896;11.424;2023-03-12T17:08:16;5.00;99.90
12889;DHT22;56848;49.896;11.424;2023-03-12T17:10:42;5.10;99.90
12889;DHT22;56848;49.896;11.424;2023-03-12T17:13:22;5.20;99.90
12889;DHT22;56848;49.896;11.424;2023-03-12T17:15:49;5.20;99.90
12889;DHT22;56848;49.896;11.424;2023-03-12T17:18:15;5.20;99.90
12889;DHT22;56848;49.896;11.424;2023-03-12T17:20:41;5.20;99.90
12889;DHT22;56848;49.896;11.424;2023-03-12T17:23:09;5.20;99.90
12889;DHT22;56848;49.896;11.424;2023-03-12T17:25:38;5.20;99.90
12889;DHT22;56848;49.896;11.424;2023-03-12T17:28:04;5.30;99.90
12889;DHT22;56848;49.896;11.424;2023-03-12T17:30:30;5.30;99.90
12889;DHT22;56848;49.896;11.424;2023-03-12T17:33:01;5.30;99.90
12889;DHT22;56848;49.896;11.424;2023-03-12T17:35:27;5.30;99.90
12889;DHT22;56848;49.896;11.424;2023-03-12T17:37:53;5.30;99.90
12889;DHT22;56848;49.896;11.424;2023-03-12T17:40:18;5.30;99.90
12889;DHT22;56848;49.896;11.424;2023-03-12T17:42:44;5.20;99.90
12889;DHT22;56848;49.896;11.424;2023-03-12T17:45:10;5.20;99.90
12889;DHT22;56848;49.896;11.424;2023-03-12T17:47:36;5.20;99.90
12889;DHT22;56848;49.896;11.424;2023-03-12T17:50:05;5.20;99.90
12889;DHT22;56848;49.896;11.424;2023-03-12T17:52:31;5.30;99.90
12889;DHT22;56848;49.896;11.424;2023-03-12T17:54:57;5.30;99.90
12889;DHT22;56848;49.896;11.424;2023-03-12T17:57:23;5.30;99.90
12889;DHT22;56848;49.896;11.424;2023-03-12T17:59:50;5.30;99.90
12889;DHT22;56848;49.896;11.424;2023-03-12T18:02:16;5.40;99.90
12889;DHT22;56848;49.896;11.424;2023-03-12T18:04:42;5.30;99.90
12889;DHT22;56848;49.896;11.424;2023-03-12T18:07:07;5.40;99.90
12889;DHT22;56848;49.896;11.424;2023-03-12T18:09:33;5.40;99.90
12889;DHT22;56848;49.896;11.424;2023-03-12T18:11:59;5.40;99.90
12889;DHT22;56848;49.896;11.424;2023-03-12T18:14:25;5.40;99.90
12889;DHT22;56848;49.896;11.424;2023-03-12T18:16:50;5.40;99.90
12889;DHT22;56848;49.896;11.424;2023-03-12T18:19:16;5.40;99.90
12889;DHT22;56848;49.896;11.424;2023-03-12T18:21:41;5.40;99.90
12889;DHT22;56848;49.896;11.424;2023-03-12T18:24:07;5.40;99.90
12889;DHT22;56848;49.896;11.424;2023-03-12T18:26:33;5.50;99.90
12889;DHT22;56848;49.896;11.424;2023-03-12T18:28:58;5.50;99.90
12889;DHT22;56848;49.896;11.424;2023-03-12T18:31:26;5.50;99.90
12889;DHT22;56848;49.896;11.424;2023-03-12T18:33:51;5.50;99.90
12889;DHT22;56848;49.896;11.424;2023-03-12T18:36:17;5.60;99.90
12889;DHT22;56848;49.896;11.424;2023-03-12T18:38:42;5.50;99.90
12889;DHT22;56848;49.896;11.424;2023-03-12T18:41:10;5.50;99.90
12889;DHT22;56848;49.896;11.424;2023-03-12T18:43:37;5.40;99.90
12889;DHT22;56848;49.896;11.424;2023-03-12T18:46:03;5.40;99.90
12889;DHT22;56848;49.896;11.424;2023-03-12T18:48:29;5.40;99.90
12889;DHT22;56848;49.896;11.424;2023-03-12T18:50:55;5.50;99.90
12889;DHT22;56848;49.896;11.424;2023-03-12T18:53:20;5.40;99.90
12889;DHT22;56848;49.896;11.424;2023-03-12T18:55:53;5.50;99.90
12889;DHT22;56848;49.896;11.424;2023-03-12T18:58:20;5.40;99.90
12889;DHT22;56848;49.896;11.424;2023-03-12T19:00:46;5.40;99.90
12889;DHT22;56848;49.896;11.424;2023-03-12T19:03:11;5.40;99.90
12889;DHT22;56848;49.896;11.424;2023-03-12T19:05:37;5.50;99.90
12889;DHT22;56848;49.896;11.424;2023-03-12T19:08:03;5.40;99.90
12889;DHT22;56848;49.896;11.424;2023-03-12T19:10:28;5.40;99.90
12889;DHT22;56848;49.896;11.424;2023-03-12T19:12:54;5.30;99.90
12889;DHT22;56848;49.896;11.424;2023-03-12T19:15:22;5.40;99.90
12889;DHT22;56848;49.896;11.424;2023-03-12T19:17:48;5.40;99.90
12889;DHT22;56848;49.896;11.424;2023-03-12T19:20:14;5.30;99.90
12889;DHT22;56848;49.896;11.424;2023-03-12T19:22:40;5.40;99.90
12889;DHT22;56848;49.896;11.424;2023-03-12T19:25:05;5.40;99.90
12889;DHT22;56848;49.896;11.424;2023-03-12T19:27:31;5.40;99.90
12889;DHT22;56848;49.896;11.424;2023-03-12T19:29:57;5.40;99.90
12889;DHT22;56848;49.896;11.424;2023-03-12T19:32:22;5.50;99.90
12889;DHT22;56848;49.896;11.424;2023-03-12T19:34:48;5.50;99.90
12889;DHT22;56848;49.896;11.424;2023-03-12T19:37:15;5.50;99.90
12889;DHT22;56848;49.896;11.424;2023-03-12T19:39:41;5.50;99.90
12889;DHT22;56848;49.896;11.424;2023-03-12T19:42:07;5.60;99.90
12889;DHT22;56848;49.896;11.424;2023-03-12T19:44:32;5.70;99.90
12889;DHT22;56848;49.896;11.424;2023-03-12T19:47:01;5.70;99.90
12889;DHT22;56848;49.896;11.424;2023-03-12T19:49:29;5.70;99.90
12889;DHT22;56848;49.896;11.424;2023-03-12T19:51:55;5.80;99.90
12889;DHT22;56848;49.896;11.424;2023-03-12T19:54:20;5.70;99.90
12889;DHT22;56848;49.896;11.424;2023-03-12T19:56:46;5.80;99.90
12889;DHT22;56848;49.896;11.424;2023-03-12T19:59:12;5.80;99.90
12889;DHT22;56848;49.896;11.424;2023-03-12T20:01:37;5.80;99.90
12889;DHT22;56848;49.896;11.424;2023-03-12T20:04:05;5.80;99.90
12889;DHT22;56848;49.896;11.424;2023-03-12T20:06:33;5.80;99.90
12889;DHT22;56848;49.896;11.424;2023-03-12T20:08:59;5.90;99.90
12889;DHT22;56848;49.896;11.424;2023-03-12T20:11:24;5.90;99.90
12889;DHT22;56848;49.896;11.424;2023-03-12T20:13:50;6.00;99.90
12889;DHT22;56848;49.896;11.424;2023-03-12T20:16:16;6.00;99.90
12889;DHT22;56848;49.896;11.424;2023-03-12T20:18:41;6.00;99.90
12889;DHT22;56848;49.896;11.424;2023-03-12T20:21:07;6.10;99.90
12889;DHT22;56848;49.896;11.424;2023-03-12T20:23:33;6.10;99.90
12889;DHT22;56848;49.896;11.424;2023-03-12T20:25:59;6.20;99.90
12889;DHT22;56848;49.896;11.424;2023-03-12T20:28:24;6.20;99.90
12889;DHT22;56848;49.896;11.424;2023-03-12T20:30:50;6.20;99.90
12889;DHT22;56848;49.896;11.424;2023-03-12T20:33:16;6.20;99.90
12889;DHT22;56848;49.896;11.424;2023-03-12T20:35:41;6.30;99.90
12889;DHT22;56848;49.896;11.424;2023-03-12T20:38:07;6.20;99.90
12889;DHT22;56848;49.896;11.424;2023-03-12T20:40:33;6.20;99.90
12889;DHT22;56848;49.896;11.424;2023-03-12T20:42:58;6.10;99.90
12889;DHT22;56848;49.896;11.424;2023-03-12T20:45:26;6.30;99.90
12889;DHT22;56848;49.896;11.424;2023-03-12T20:47:52;6.40;99.90
12889;DHT22;56848;49.896;11.424;2023-03-12T20:50:18;6.40;99.90
12889;DHT22;56848;49.896;11.424;2023-03-12T20:52:43;6.40;99.90
12889;DHT22;56848;49.896;11.424;2023-03-12T20:55:09;6.40;99.90
12889;DHT22;56848;49.896;11.424;2023-03-12T20:57:35;6.40;99.90
12889;DHT22;56848;49.896;11.424;2023-03-12T21:00:00;6.40;99.90
12889;DHT22;56848;49.896;11.424;2023-03-12T21:02:26;6.30;99.90
12889;DHT22;56848;49.896;11.424;2023-03-12T21:04:51;6.40;99.90
12889;DHT22;56848;49.896;11.424;2023-03-12T21:07:18;6.30;99.90
12889;DHT22;56848;49.896;11.424;2023-03-12T21:09:44;6.30;99.90
12889;DHT22;56848;49.896;11.424;2023-03-12T21:12:09;6.40;99.90
